createdAt,value
2023-01-19T00:04:20.993Z,95462.28
2023-01-19T00:09:23.129Z,95461.38
2023-01-19T00:14:25.123Z,95450.50
2023-01-19T00:19:28.667Z,95461.25
2023-01-19T00:24:30.603Z,95464.09
2023-01-19T00:29:34.179Z,95457.31
2023-01-19T00:34:39.586Z,95455.50
2023-01-19T00:39:41.606Z,95444.28
2023-01-19T00:44:43.625Z,95452.78
2023-01-19T00:49:46.869Z,95439.06
2023-01-19T00:54:48.952Z,95457.97
2023-01-19T00:59:50.876Z,95467.94
2023-01-19T01:04:56.735Z,95473.75
2023-01-19T01:09:58.670Z,95464.06
2023-01-19T01:15:00.619Z,95457.69
2023-01-19T01:27:55.204Z,95447.00
2023-01-19T01:32:58.983Z,95431.69
2023-01-19T01:38:01.385Z,95415.84
2023-01-19T01:43:03.615Z,95430.44
2023-01-19T01:48:12.359Z,95435.03
2023-01-19T01:53:15.932Z,95431.09
2023-01-19T01:58:17.933Z,95444.38
2023-01-19T02:03:23.593Z,95442.72
2023-01-19T02:08:50.163Z,95454.34
2023-01-19T02:13:52.840Z,95456.47
2023-01-19T02:18:57.326Z,95463.84
2023-01-19T02:24:02.904Z,95463.16
2023-01-19T02:29:08.200Z,95474.53
2023-01-19T02:41:18.001Z,95474.34
2023-01-19T02:46:20.076Z,95480.94
2023-01-19T02:51:24.961Z,95481.09
2023-01-19T02:56:54.958Z,95478.81
2023-01-19T03:02:10.701Z,95477.03
2023-01-19T03:07:20.870Z,95476.94
2023-01-19T03:19:34.858Z,95481.56
2023-01-19T03:24:40.837Z,95481.78
2023-01-19T03:29:48.257Z,95485.41
2023-01-19T03:34:54.824Z,95481.69
2023-01-19T03:39:56.880Z,95474.06
2023-01-19T03:45:03.591Z,95480.88
2023-01-19T03:50:13.739Z,95484.94
2023-01-19T03:55:15.651Z,95484.94
2023-01-19T04:00:18.304Z,95487.09
2023-01-19T04:05:22.367Z,95488.53
2023-01-19T04:10:25.203Z,95498.56
2023-01-19T04:15:28.687Z,95503.13
2023-01-19T04:20:32.028Z,95502.34
2023-01-19T04:25:33.946Z,95487.59
2023-01-19T04:30:35.936Z,95509.00
2023-01-19T04:35:39.236Z,95519.50
2023-01-19T04:40:41.249Z,95532.53
2023-01-19T04:45:44.782Z,95535.91
2023-01-19T04:50:48.152Z,95533.00
2023-01-19T04:55:53.526Z,95536.59
2023-01-19T05:00:55.527Z,95540.91
2023-01-19T05:05:59.083Z,95531.88
2023-01-19T05:11:01.109Z,95537.09
2023-01-19T05:16:03.359Z,95539.81
2023-01-19T05:21:07.303Z,95522.78
2023-01-19T05:26:10.361Z,95514.72
2023-01-19T05:31:12.366Z,95527.13
2023-01-19T05:36:15.687Z,95524.91
2023-01-19T05:41:17.769Z,95525.94
2023-01-19T05:46:19.738Z,95520.84
2023-01-19T05:51:23.016Z,95515.63
2023-01-19T05:56:24.992Z,95521.34
2023-01-19T06:01:27.125Z,95524.88
2023-01-19T06:06:30.439Z,95533.09
2023-01-19T06:11:32.363Z,95545.09
2023-01-19T06:16:34.424Z,95545.47
2023-01-19T06:21:38.198Z,95543.72
2023-01-19T06:26:40.206Z,95567.47
2023-01-19T06:31:42.582Z,95580.25
2023-01-19T06:36:46.487Z,95606.47
2023-01-19T06:41:48.469Z,95613.94
2023-01-19T06:46:50.402Z,95623.97
2023-01-19T06:51:53.799Z,95630.00
2023-01-19T06:56:55.779Z,95623.94
2023-01-19T07:01:57.873Z,95638.09
2023-01-19T07:07:01.453Z,95643.91
2023-01-19T07:12:03.812Z,95654.16
2023-01-19T07:17:05.810Z,95653.34
2023-01-19T07:22:09.081Z,95645.94
2023-01-19T07:27:14.704Z,95647.16
2023-01-19T07:32:16.637Z,95645.34
2023-01-19T07:37:20.188Z,95642.16
2023-01-19T07:42:22.151Z,95666.84
2023-01-19T07:47:24.116Z,95675.09
2023-01-19T07:52:27.379Z,95677.72
2023-01-19T07:57:29.885Z,95681.16
2023-01-19T08:02:33.979Z,95692.56
2023-01-19T08:07:37.298Z,95689.13
2023-01-19T08:12:39.336Z,95706.47
2023-01-19T08:17:41.292Z,95691.28
2023-01-19T08:22:47.202Z,95711.50
2023-01-19T08:27:49.154Z,95685.41
2023-01-19T08:32:51.274Z,95693.28
2023-01-19T08:37:54.545Z,95667.69
2023-01-19T08:43:00.962Z,95674.63
2023-01-19T08:48:04.002Z,95672.56
2023-01-19T08:53:07.828Z,95686.13
2023-01-19T08:58:10.142Z,95690.59
2023-01-19T09:03:13.698Z,95707.75
2023-01-19T09:08:17.107Z,95726.16
2023-01-19T09:13:20.202Z,95719.84
2023-01-19T09:18:22.466Z,95707.59
2023-01-19T09:23:26.024Z,95703.66
2023-01-19T09:28:29.362Z,95716.22
2023-01-19T09:33:31.355Z,95731.47
2023-01-19T09:38:34.674Z,95730.59
2023-01-19T09:43:41.095Z,95718.13
2023-01-19T09:48:46.557Z,95712.22
2023-01-19T09:53:58.293Z,95702.66
2023-01-19T09:59:00.799Z,95702.53
2023-01-19T10:04:27.404Z,95693.66
2023-01-19T10:09:35.838Z,95708.09
2023-01-19T10:14:45.968Z,95694.31
2023-01-19T10:19:51.662Z,95704.31
2023-01-19T10:24:56.976Z,95697.47
2023-01-19T10:30:00.056Z,95694.50
2023-01-19T10:35:12.726Z,95690.38
2023-01-19T10:40:25.417Z,95688.22
2023-01-19T10:45:30.763Z,95682.69
2023-01-19T10:50:34.941Z,95686.06
2023-01-19T10:55:41.741Z,95677.44
2023-01-19T11:00:44.320Z,95686.81
2023-01-19T11:05:46.513Z,95679.19
2023-01-19T11:10:58.176Z,95683.66
2023-01-19T11:16:05.903Z,95688.00
2023-01-19T11:21:10.486Z,95668.97
2023-01-19T11:26:24.638Z,95678.84
2023-01-19T11:31:33.079Z,95671.13
2023-01-19T11:36:36.943Z,95662.66
2023-01-19T11:41:40.835Z,95667.56
2023-01-19T11:46:45.011Z,95675.50
2023-01-19T11:51:51.158Z,95675.50
2023-01-19T11:56:56.703Z,95674.75
2023-01-19T12:02:02.388Z,95672.47
2023-01-19T12:07:10.341Z,95665.84
2023-01-19T12:12:28.771Z,95669.31
2023-01-19T12:17:35.129Z,95669.31
2023-01-19T12:22:44.708Z,95674.97
2023-01-19T12:27:49.510Z,95687.66
2023-01-19T12:32:51.580Z,95674.66
2023-01-19T12:37:53.489Z,95679.84
2023-01-19T12:43:00.726Z,95690.28
2023-01-19T12:48:04.407Z,95690.59
2023-01-19T12:53:16.811Z,95688.41
2023-01-19T12:58:23.010Z,95695.09
2023-01-19T13:03:57.044Z,95699.50
2023-01-19T13:09:00.727Z,95704.72
2023-01-19T13:14:35.418Z,95704.72
2023-01-19T13:19:46.006Z,95711.25
2023-01-19T13:25:10.336Z,95725.13
2023-01-19T13:30:17.498Z,95733.44
2023-01-19T13:35:22.378Z,95732.81
2023-01-19T13:40:32.469Z,95748.38
2023-01-19T13:45:38.031Z,95755.00
2023-01-19T13:50:42.726Z,95759.16
2023-01-19T13:55:44.714Z,95765.00
2023-01-19T14:00:46.709Z,95758.94
2023-01-19T14:05:52.400Z,95782.00
2023-01-19T14:11:02.484Z,95773.00
2023-01-19T14:16:08.012Z,95772.22
2023-01-19T14:21:13.451Z,95775.44
2023-01-19T14:26:45.961Z,95778.28
2023-01-19T14:31:49.738Z,95771.44
2023-01-19T14:36:53.387Z,95776.63
2023-01-19T14:41:59.099Z,95782.97
2023-01-19T14:47:01.556Z,95782.97
2023-01-19T14:52:08.348Z,95785.53
2023-01-19T14:57:12.563Z,95792.28
2023-01-19T15:02:14.779Z,95801.63
2023-01-19T15:07:19.396Z,95804.09
2023-01-19T15:12:26.766Z,95804.38
2023-01-19T15:17:28.804Z,95797.16
2023-01-19T15:22:32.132Z,95801.81
2023-01-19T15:27:34.092Z,95809.63
2023-01-19T15:32:36.137Z,95814.38
2023-01-19T15:37:39.422Z,95814.44
2023-01-19T15:42:56.491Z,95823.34
2023-01-19T15:47:58.545Z,95826.56
2023-01-19T15:53:01.966Z,95828.69
2023-01-19T15:58:04.099Z,95828.69
2023-01-19T16:03:06.122Z,95838.84
2023-01-19T16:08:09.788Z,95840.13
2023-01-19T16:13:12.184Z,95840.69
2023-01-19T16:18:14.213Z,95845.53
2023-01-19T16:23:17.543Z,95845.88
2023-01-19T16:28:19.587Z,95848.09
2023-01-19T16:33:21.642Z,95848.97
2023-01-19T16:38:25.061Z,95856.56
2023-01-19T16:43:28.335Z,95861.41
2023-01-19T16:48:32.229Z,95861.91
2023-01-19T16:53:35.640Z,95864.03
2023-01-19T16:58:38.361Z,95869.31
2023-01-19T17:03:40.950Z,95872.59
2023-01-19T17:08:44.339Z,95873.53
2023-01-19T17:13:47.286Z,95876.25
2023-01-19T17:18:49.473Z,95871.50
2023-01-19T17:23:54.333Z,95871.63
2023-01-19T17:28:58.812Z,95878.34
2023-01-19T17:34:01.542Z,95873.78
2023-01-19T17:39:07.950Z,95879.41
2023-01-19T17:44:10.520Z,95878.28
2023-01-19T17:49:12.481Z,95891.75
2023-01-19T17:54:15.818Z,95889.97
2023-01-19T17:59:17.903Z,95898.97
2023-01-19T18:04:19.925Z,95896.94
2023-01-19T18:09:23.292Z,95903.13
2023-01-19T18:14:25.411Z,95896.50
2023-01-19T18:19:27.498Z,95912.94
2023-01-19T18:24:30.954Z,95907.19
2023-01-19T18:29:33.083Z,95911.31
2023-01-19T18:34:35.377Z,95924.06
2023-01-19T18:39:38.736Z,95929.81
2023-01-19T18:44:40.872Z,95935.09
2023-01-19T18:49:42.843Z,95937.13
2023-01-19T18:54:47.879Z,95942.03
2023-01-19T18:59:49.997Z,95944.50
2023-01-19T19:04:52.018Z,95942.22
2023-01-19T19:09:55.384Z,95948.41
2023-01-19T19:14:57.440Z,95951.78
2023-01-19T19:19:59.409Z,95966.41
2023-01-19T19:25:02.820Z,95975.56
2023-01-19T19:30:05.661Z,95981.66
2023-01-19T19:35:08.394Z,95996.59
2023-01-19T19:40:12.745Z,96011.50
2023-01-19T19:45:15.629Z,96013.34
2023-01-19T19:50:17.771Z,96019.81
2023-01-19T19:55:21.205Z,96036.72
2023-01-19T20:00:23.471Z,96042.81
2023-01-19T20:05:25.450Z,96043.97
2023-01-19T20:10:30.002Z,96038.88
2023-01-19T20:15:32.274Z,96049.59
2023-01-19T20:20:34.625Z,96052.88
2023-01-19T20:25:40.033Z,96055.69
2023-01-19T20:30:42.166Z,96048.53
2023-01-19T20:35:44.237Z,96048.25
2023-01-19T20:40:47.587Z,96054.16
2023-01-19T20:45:49.641Z,96062.16
2023-01-19T20:50:57.713Z,96063.72
2023-01-19T20:56:06.143Z,96068.63
2023-01-19T21:01:12.741Z,96060.88
2023-01-19T21:06:15.652Z,96069.38
2023-01-19T21:11:21.066Z,96071.75
2023-01-19T21:16:24.404Z,96093.19
2023-01-19T21:21:31.515Z,96099.44
2023-01-19T21:26:35.927Z,96102.47
2023-01-19T21:31:37.973Z,96111.75
2023-01-19T21:36:40.151Z,96117.88
2023-01-19T21:41:44.622Z,96119.34
2023-01-19T21:46:46.628Z,96120.50
2023-01-19T21:51:50.601Z,96122.75
2023-01-19T21:56:53.927Z,96120.16
2023-01-19T22:01:56.095Z,96127.09
2023-01-19T22:06:58.166Z,96131.75
2023-01-19T22:12:01.825Z,96134.31
2023-01-19T22:17:04.803Z,96137.34
2023-01-19T22:22:06.799Z,96135.47
2023-01-19T22:27:10.089Z,96136.63
2023-01-19T22:32:12.030Z,96141.66
2023-01-19T22:37:14.042Z,96150.66
2023-01-19T22:42:17.347Z,96154.44
2023-01-19T22:47:19.289Z,96153.75
2023-01-19T22:52:21.259Z,96145.69
2023-01-19T22:57:24.866Z,96149.63
2023-01-19T23:02:26.879Z,96156.09
2023-01-19T23:07:28.838Z,96170.66
2023-01-19T23:12:32.149Z,96179.84
2023-01-19T23:17:34.090Z,96180.44
2023-01-19T23:22:36.443Z,96176.38
2023-01-19T23:27:39.738Z,96172.66
2023-01-19T23:32:46.886Z,96175.28
2023-01-19T23:37:49.106Z,96175.69
2023-01-19T23:42:54.416Z,96172.50
2023-01-19T23:47:56.484Z,96159.34
2023-01-19T23:52:58.465Z,96165.78
2023-01-19T23:58:01.784Z,96170.50
